Time;durP1;ratioP1;P1;durP2;ratioP2;P2;SDS_P1;SDS_P2;PMS_P1;PMS_P2;Temp;Humidity;BMP_temperature;BMP_pressure;BME280_temperature;BME280_humidity;BME280_pressure;Samples;Min_cycle;Max_cycle;Signal;HPM_P1;HPM_P2
2022/04/08 00:01:03;;;;;;;1.37;0.73;;;8.00;99.90;8.00;97949.00;;;;4836424;28;102937;-66
2022/04/08 00:03:29;;;;;;;1.67;0.50;;;8.00;99.90;8.10;97931.00;;;;4835197;28;109012;-67
2022/04/08 00:05:55;;;;;;;8.30;0.67;;;8.10;98.90;8.10;97925.00;;;;4836403;28;115613;-67
2022/04/08 00:08:21;;;;;;;0.97;0.73;;;8.10;99.00;8.10;97925.00;;;;4837363;28;87887;-67
2022/04/08 00:10:48;;;;;;;1.20;0.70;;;8.20;98.80;8.10;97904.00;;;;4836326;28;88015;-66
2022/04/08 00:13:15;;;;;;;3.90;0.97;;;8.20;98.40;8.30;97932.00;;;;4834312;28;108713;-66
2022/04/08 00:15:41;;;;;;;4.83;0.60;;;8.30;97.50;8.30;97928.00;;;;4836293;28;88491;-64
2022/04/08 00:18:07;;;;;;;2.10;0.47;;;8.30;97.20;8.30;97927.00;;;;4835098;28;118238;-66
2022/04/08 00:20:34;;;;;;;0.90;0.43;;;8.30;96.70;8.40;97928.00;;;;4835383;28;105330;-65
2022/04/08 00:23:03;;;;;;;1.23;0.77;;;8.40;95.90;8.50;97912.00;;;;4836518;28;87949;-66
2022/04/08 00:25:30;;;;;;;1.50;0.90;;;8.40;95.30;8.50;97917.00;;;;4836810;28;88331;-65
2022/04/08 00:27:55;;;;;;;1.57;0.87;;;8.50;95.30;8.50;97921.00;;;;4834758;28;105228;-65
2022/04/08 00:30:21;;;;;;;0.40;0.30;;;8.50;94.40;8.60;97920.00;;;;4836411;28;87432;-67
2022/04/08 00:32:47;;;;;;;2.37;0.37;;;8.60;93.30;8.60;97917.00;;;;4835364;28;87962;-67
2022/04/08 00:35:13;;;;;;;0.70;0.47;;;8.70;92.50;8.70;97920.00;;;;4834716;28;108035;-66
2022/04/08 00:37:40;;;;;;;1.93;0.80;;;8.70;91.60;8.80;97904.00;;;;4835041;28;88908;-65
2022/04/08 00:40:07;;;;;;;0.73;0.47;;;8.80;91.00;8.90;97942.00;;;;4836391;28;87897;-65
2022/04/08 00:42:34;;;;;;;4.40;1.10;;;8.80;90.60;8.90;97931.00;;;;4835197;28;88008;-65
2022/04/08 00:44:59;;;;;;;0.40;0.40;;;8.90;90.00;9.00;97929.00;;;;4836103;28;87713;-66
2022/04/08 00:47:25;;;;;;;1.10;0.70;;;9.00;89.40;9.00;97941.00;;;;4834537;28;117420;-66
2022/04/08 00:49:53;;;;;;;0.80;0.53;;;9.00;88.40;9.10;97930.00;;;;4834819;28;110547;-65
2022/04/08 00:52:19;;;;;;;0.60;0.50;;;9.10;88.70;9.10;97940.00;;;;4837414;28;87691;-65
2022/04/08 00:54:47;;;;;;;3.27;0.77;;;9.10;86.60;9.20;97941.00;;;;4819596;28;105440;-66
2022/04/08 00:57:13;;;;;;;1.40;0.50;;;9.10;86.40;9.20;97942.00;;;;4833387;28;87993;-66
2022/04/08 00:59:39;;;;;;;1.70;0.67;;;9.20;85.50;9.20;97958.00;;;;4835908;28;87855;-65
2022/04/08 01:02:05;;;;;;;3.60;0.73;;;9.20;84.10;9.20;97948.00;;;;4834311;28;108952;-65
2022/04/08 01:04:31;;;;;;;3.50;0.60;;;9.30;84.30;9.30;97976.00;;;;4835522;28;88408;-66
2022/04/08 01:06:57;;;;;;;3.37;1.00;;;9.30;82.80;9.30;97966.00;;;;4833932;28;117359;-66
2022/04/08 01:09:23;;;;;;;0.87;0.63;;;9.30;82.30;9.30;97960.00;;;;4832917;28;110504;-65
2022/04/08 01:11:49;;;;;;;1.23;0.47;;;9.30;81.70;9.30;97978.00;;;;4835524;28;105347;-65
2022/04/08 01:14:16;;;;;;;3.27;0.50;;;9.40;81.10;9.40;97977.00;;;;4828880;28;88514;-65
2022/04/08 01:16:42;;;;;;;1.40;0.30;;;9.30;80.70;9.40;97965.00;;;;4835696;28;88006;-65
2022/04/08 01:19:08;;;;;;;0.23;0.23;;;9.40;80.10;9.40;97986.00;;;;4835999;28;87059;-65
2022/04/08 01:21:34;;;;;;;2.77;0.70;;;9.40;79.90;9.40;97989.00;;;;4835947;28;87651;-65
2022/04/08 01:24:02;;;;;;;3.13;0.60;;;9.40;78.90;9.50;97985.00;;;;4835369;28;89148;-64
2022/04/08 01:26:28;;;;;;;1.60;0.20;;;9.50;77.50;9.50;97990.00;;;;4834908;28;89034;-65
2022/04/08 01:28:55;;;;;;;1.90;0.80;;;9.50;77.40;9.50;98001.00;;;;4834728;28;110552;-65
2022/04/08 01:31:25;;;;;;;1.43;0.50;;;9.50;77.60;9.50;97985.00;;;;4835654;28;87650;-64
2022/04/08 01:33:52;;;;;;;0.37;0.33;;;9.50;78.20;9.50;98013.00;;;;4835053;28;87796;-64
2022/04/08 01:36:18;;;;;;;4.83;1.00;;;9.50;77.30;9.50;98039.00;;;;4834299;28;89011;-64
2022/04/08 01:38:44;;;;;;;2.03;0.70;;;9.50;77.60;9.50;98032.00;;;;4835106;28;100326;-64
2022/04/08 01:41:09;;;;;;;0.33;0.30;;;9.50;78.10;9.40;98025.00;;;;4834972;28;87964;-64
2022/04/08 01:43:35;;;;;;;0.70;0.30;;;9.50;78.90;9.40;98042.00;;;;4835211;28;116625;-64
2022/04/08 01:46:01;;;;;;;0.50;0.30;;;9.40;79.00;9.40;98038.00;;;;4833990;28;118280;-64
2022/04/08 01:48:27;;;;;;;1.83;0.60;;;9.40;79.30;9.30;98048.00;;;;4838125;28;88148;-64
2022/04/08 01:50:53;;;;;;;0.70;0.50;;;9.40;80.30;9.30;98047.00;;;;4837209;28;108988;-64
2022/04/08 01:53:18;;;;;;;2.30;1.03;;;9.30;80.90;9.30;98054.00;;;;4840305;28;88172;-64
2022/04/08 01:55:44;;;;;;;0.73;0.43;;;9.30;80.80;9.30;98053.00;;;;4836957;28;116869;-66
2022/04/08 01:58:10;;;;;;;0.73;0.60;;;9.30;80.80;9.20;98055.00;;;;4837975;28;95732;-66
2022/04/08 02:00:37;;;;;;;1.17;0.60;;;9.20;81.70;9.20;98083.00;;;;4838099;28;87816;-65
2022/04/08 02:03:03;;;;;;;0.20;0.20;;;9.20;82.40;9.20;98088.00;;;;4837802;28;88203;-66
2022/04/08 02:05:29;;;;;;;2.20;0.63;;;9.20;83.30;9.10;98122.00;;;;4837592;28;117480;-65
2022/04/08 02:07:54;;;;;;;1.60;0.53;;;9.20;83.80;9.10;98109.00;;;;4838385;28;104824;-65
2022/04/08 02:10:21;;;;;;;0.23;0.23;;;9.10;84.30;9.00;98103.00;;;;4838630;28;87673;-64
2022/04/08 02:12:47;;;;;;;1.13;0.47;;;9.10;85.10;9.00;98105.00;;;;4837593;28;89406;-64
2022/04/08 02:15:13;;;;;;;0.67;0.50;;;9.10;85.90;9.00;98091.00;;;;4836085;28;117511;-66
2022/04/08 02:17:39;;;;;;;0.30;0.30;;;9.00;86.50;9.00;98114.00;;;;4837056;28;106182;-65
2022/04/08 02:20:08;;;;;;;2.07;0.43;;;9.00;87.00;8.90;98132.00;;;;4837142;28;108886;-66
2022/04/08 02:22:35;;;;;;;0.43;0.43;;;9.00;87.40;8.90;98124.00;;;;4835234;28;87927;-65
2022/04/08 02:25:02;;;;;;;1.07;0.40;;;9.00;88.20;8.90;98139.00;;;;4837888;28;88614;-65
2022/04/08 02:27:29;;;;;;;2.17;0.60;;;9.00;88.70;8.80;98132.00;;;;4837697;28;87647;-66
2022/04/08 02:29:59;;;;;;;2.87;0.47;;;8.90;89.40;8.80;98139.00;;;;4838537;28;88079;-66
2022/04/08 02:32:25;;;;;;;4.80;0.53;;;8.80;90.00;8.70;98144.00;;;;4837567;28;87275;-64
2022/04/08 02:34:52;;;;;;;1.23;0.80;;;8.80;90.40;8.70;98145.00;;;;4836653;28;116526;-64
2022/04/08 02:37:18;;;;;;;3.63;0.63;;;8.80;90.70;8.60;98150.00;;;;4837425;28;88983;-65
2022/04/08 02:39:44;;;;;;;0.40;0.33;;;8.70;91.00;8.60;98160.00;;;;4836145;28;91558;-67
2022/04/08 02:42:10;;;;;;;0.70;0.40;;;8.70;91.40;8.60;98154.00;;;;4837689;28;101449;-65
2022/04/08 02:44:35;;;;;;;0.40;0.40;;;8.60;91.50;8.60;98166.00;;;;4837485;28;88416;-65
2022/04/08 02:47:01;;;;;;;2.00;0.60;;;8.60;91.80;8.50;98180.00;;;;4837056;28;110793;-65
2022/04/08 02:49:27;;;;;;;1.17;0.63;;;8.60;92.00;8.50;98178.00;;;;4837453;28;88224;-65
2022/04/08 02:51:53;;;;;;;2.17;0.70;;;8.60;92.10;8.50;98172.00;;;;4837823;28;88526;-65
2022/04/08 02:54:19;;;;;;;1.13;0.80;;;8.60;92.10;8.50;98168.00;;;;4842948;28;87932;-65
2022/04/08 02:56:44;;;;;;;3.47;0.80;;;8.60;92.30;8.50;98185.00;;;;4837914;28;87544;-65
2022/04/08 02:59:10;;;;;;;0.40;0.40;;;8.50;92.60;8.50;98177.00;;;;4836395;28;107883;-65
2022/04/08 03:01:36;;;;;;;0.60;0.40;;;8.50;92.60;8.50;98178.00;;;;4836648;28;117853;-65
2022/04/08 03:04:05;;;;;;;2.30;0.80;;;8.60;92.90;8.40;98195.00;;;;4837082;28;89214;-64
2022/04/08 03:06:32;;;;;;;0.40;0.40;;;8.50;92.90;8.50;98182.00;;;;4837250;28;88190;-65
2022/04/08 03:08:58;;;;;;;0.50;0.50;;;8.50;93.00;8.50;98196.00;;;;4837405;28;87978;-64
2022/04/08 03:11:23;;;;;;;0.97;0.90;;;8.50;92.80;8.50;98190.00;;;;4836500;28;117357;-63
2022/04/08 03:13:49;;;;;;;1.23;0.70;;;8.50;92.60;8.50;98205.00;;;;4837516;28;87849;-65
2022/04/08 03:16:15;;;;;;;0.40;0.40;;;8.50;93.10;8.50;98204.00;;;;4836527;28;110608;-66
2022/04/08 03:18:41;;;;;;;0.40;0.40;;;8.50;93.50;8.50;98217.00;;;;4836240;28;110513;-66
2022/04/08 03:21:06;;;;;;;1.50;0.67;;;8.50;93.50;8.50;98204.00;;;;4836561;28;115807;-65
2022/04/08 03:23:32;;;;;;;0.80;0.30;;;8.50;93.60;8.40;98227.00;;;;4836804;28;94270;-66
2022/04/08 03:25:57;;;;;;;2.53;0.80;;;8.50;93.70;8.40;98224.00;;;;4835810;28;107176;-65
2022/04/08 03:28:23;;;;;;;0.73;0.73;;;8.50;93.80;8.40;98219.00;;;;4835202;28;108860;-65
2022/04/08 03:30:49;;;;;;;1.20;0.80;;;8.50;93.90;8.40;98231.00;;;;4835143;28;115255;-66
2022/04/08 03:33:14;;;;;;;1.80;0.67;;;8.50;94.30;8.40;98244.00;;;;4836400;28;102414;-65
2022/04/08 03:35:40;;;;;;;4.40;0.90;;;8.50;94.10;8.40;98227.00;;;;4836520;28;87737;-66
2022/04/08 03:38:06;;;;;;;2.47;1.10;;;8.40;94.50;8.40;98242.00;;;;4835577;28;108787;-65
2022/04/08 03:40:35;;;;;;;0.50;0.50;;;8.40;94.30;8.40;98235.00;;;;4835335;28;116677;-65
2022/04/08 03:43:02;;;;;;;0.97;0.67;;;8.40;94.60;8.40;98235.00;;;;4836881;28;88573;-66
2022/04/08 03:45:27;;;;;;;0.83;0.50;;;8.40;94.70;8.30;98248.00;;;;4836527;28;94111;-66
2022/04/08 03:47:53;;;;;;;0.93;0.60;;;8.40;95.00;8.30;98267.00;;;;4835635;28;108703;-64
2022/04/08 03:50:19;;;;;;;0.60;0.60;;;8.30;95.20;8.30;98266.00;;;;4835741;28;116918;-66
2022/04/08 03:52:44;;;;;;;0.67;0.67;;;8.40;95.20;8.30;98272.00;;;;4837795;28;117431;-66
2022/04/08 03:55:10;;;;;;;2.17;0.80;;;8.40;95.40;8.30;98273.00;;;;4836559;28;87901;-64
2022/04/08 03:57:36;;;;;;;1.87;1.00;;;8.30;95.50;8.30;98269.00;;;;4836677;28;87808;-65
2022/04/08 04:00:03;;;;;;;0.53;0.53;;;8.30;95.40;8.30;98266.00;;;;4835670;28;102709;-65
2022/04/08 04:02:28;;;;;;;0.50;0.50;;;8.30;95.00;8.30;98280.00;;;;4835307;28;108154;-65
2022/04/08 04:04:59;;;;;;;1.13;0.73;;;8.30;95.20;8.20;98283.00;;;;4837142;28;88074;-66
2022/04/08 04:07:28;;;;;;;0.67;0.63;;;8.40;95.40;8.30;98299.00;;;;4836669;28;87834;-65
2022/04/08 04:09:54;;;;;;;0.90;0.80;;;8.30;95.50;8.30;98290.00;;;;4835322;28;88744;-65
2022/04/08 04:12:20;;;;;;;0.87;0.67;;;8.30;96.10;8.20;98289.00;;;;4829571;28;88455;-65
2022/04/08 04:14:46;;;;;;;1.90;1.00;;;8.30;96.10;8.30;98297.00;;;;4836845;28;88089;-65
2022/04/08 04:17:12;;;;;;;0.70;0.70;;;8.30;95.70;8.20;98307.00;;;;4834729;28;109675;-65
2022/04/08 04:19:37;;;;;;;2.27;1.03;;;8.30;95.60;8.20;98303.00;;;;4842324;28;116243;-65
2022/04/08 04:22:04;;;;;;;0.57;0.57;;;8.30;95.40;8.20;98312.00;;;;4835741;28;117070;-66
2022/04/08 04:24:30;;;;;;;1.80;0.50;;;8.30;95.50;8.20;98309.00;;;;4835951;28;87875;-65
2022/04/08 04:26:55;;;;;;;4.37;0.90;;;8.20;96.00;8.20;98313.00;;;;4837348;28;87750;-66
2022/04/08 04:29:21;;;;;;;0.83;0.77;;;8.20;96.00;8.20;98320.00;;;;4802569;28;117775;-66
2022/04/08 04:31:47;;;;;;;1.20;1.00;;;8.20;95.70;8.20;98325.00;;;;4829951;28;117871;-65
2022/04/08 04:34:13;;;;;;;0.67;0.60;;;8.30;95.50;8.20;98308.00;;;;4832176;28;87419;-66
2022/04/08 04:36:39;;;;;;;1.87;1.40;;;8.20;95.30;8.20;98330.00;;;;4833552;28;92353;-65
2022/04/08 04:39:05;;;;;;;1.07;1.00;;;8.20;95.40;8.20;98328.00;;;;4834314;28;110013;-65
2022/04/08 04:41:32;;;;;;;0.53;0.30;;;8.20;95.40;8.20;98335.00;;;;4835061;28;117597;-66
2022/04/08 04:43:57;;;;;;;0.93;0.80;;;8.20;95.20;8.20;98349.00;;;;4836101;28;87447;-65
2022/04/08 04:46:23;;;;;;;1.37;0.87;;;8.20;95.70;8.10;98340.00;;;;4835714;28;108732;-65
2022/04/08 04:48:49;;;;;;;2.00;0.80;;;8.70;97.70;8.00;98347.00;;;;4835429;28;102949;-66
2022/04/08 04:51:16;;;;;;;0.70;0.70;;;8.10;99.90;7.70;98363.00;;;;4835116;28;117677;-65
2022/04/08 04:53:42;;;;;;;3.73;1.20;;;7.90;99.90;7.50;98356.00;;;;4836464;28;88279;-66
2022/04/08 04:56:08;;;;;;;1.77;1.13;;;7.60;99.90;7.30;98366.00;;;;4835600;28;100976;-65
2022/04/08 04:58:34;;;;;;;1.63;0.80;;;7.60;99.90;7.30;98364.00;;;;4834104;28;116996;-65
2022/04/08 05:01:00;;;;;;;1.47;1.00;;;7.60;99.90;7.30;98383.00;;;;4836151;28;88129;-66
2022/04/08 05:03:25;;;;;;;0.97;0.60;;;7.40;99.90;7.30;98365.00;;;;4835639;28;87857;-66
2022/04/08 05:05:53;;;;;;;1.63;1.20;;;7.40;99.90;7.40;98381.00;;;;4833976;28;108025;-65
2022/04/08 05:08:20;;;;;;;0.80;0.80;;;7.40;99.90;7.40;98380.00;;;;4834567;28;89019;-66
2022/04/08 05:10:47;;;;;;;0.83;0.80;;;7.50;99.90;7.50;98394.00;;;;4835471;28;88461;-66
2022/04/08 05:13:13;;;;;;;1.07;0.90;;;7.60;99.90;7.60;98397.00;;;;4835036;28;99358;-65
2022/04/08 05:15:42;;;;;;;1.10;0.87;;;7.70;99.90;7.70;98383.00;;;;4834129;28;108576;-66
2022/04/08 05:18:09;;;;;;;0.70;0.67;;;8.10;99.90;7.80;98386.00;;;;4847849;28;88092;-66
2022/04/08 05:20:35;;;;;;;1.83;1.00;;;7.70;99.90;7.80;98392.00;;;;4833224;28;107735;-65
2022/04/08 05:23:01;;;;;;;1.17;0.83;;;7.80;99.90;7.90;98406.00;;;;4839364;28;86820;-66
2022/04/08 05:25:27;;;;;;;1.03;0.90;;;7.90;99.90;7.90;98388.00;;;;4837156;28;108565;-65
2022/04/08 05:27:53;;;;;;;2.47;1.00;;;7.90;99.90;7.90;98427.00;;;;4835464;28;117797;-66
2022/04/08 05:30:19;;;;;;;0.50;0.50;;;7.90;99.90;7.80;98418.00;;;;4838761;28;89301;-66
2022/04/08 05:32:48;;;;;;;4.47;1.07;;;7.90;99.90;7.80;98419.00;;;;4838609;28;87827;-66
2022/04/08 05:35:15;;;;;;;1.10;1.00;;;7.80;99.90;7.80;98448.00;;;;4838283;28;87863;-66
2022/04/08 05:37:44;;;;;;;1.33;1.10;;;7.80;99.90;7.70;98425.00;;;;4837874;28;87894;-67
2022/04/08 05:40:14;;;;;;;1.33;1.00;;;7.80;99.90;7.60;98446.00;;;;4844916;28;88257;-66
2022/04/08 05:42:42;;;;;;;1.63;0.77;;;7.70;99.90;7.60;98435.00;;;;4838137;28;87764;-65
2022/04/08 05:45:09;;;;;;;1.30;0.70;;;7.70;99.90;7.60;98444.00;;;;4840432;28;88146;-66
2022/04/08 05:47:35;;;;;;;0.70;0.70;;;7.60;99.90;7.60;98443.00;;;;4837621;28;102306;-65
2022/04/08 05:50:03;;;;;;;1.10;0.90;;;8.00;99.90;7.60;98452.00;;;;4837330;28;106074;-66
2022/04/08 05:52:29;;;;;;;3.77;1.37;;;7.60;99.90;7.60;98432.00;;;;4843114;28;87799;-65
2022/04/08 05:54:54;;;;;;;2.00;0.87;;;7.70;99.90;7.70;98465.00;;;;4822366;28;89476;-66
2022/04/08 05:57:20;;;;;;;0.77;0.77;;;7.70;99.90;7.80;98451.00;;;;4837364;28;116591;-67
2022/04/08 05:59:47;;;;;;;1.30;0.90;;;7.90;99.90;7.90;98473.00;;;;4820304;28;116165;-66
2022/04/08 06:02:14;;;;;;;1.12;0.82;;;7.90;99.90;7.90;98461.00;;;;4004764;28;10001245;-65
2022/04/08 06:04:40;;;;;;;0.67;0.67;;;7.90;99.90;8.00;98471.00;;;;4835892;28;88104;-66
2022/04/08 06:07:07;;;;;;;2.77;0.90;;;8.00;99.90;8.00;98492.00;;;;4838069;28;88163;-66
2022/04/08 06:09:33;;;;;;;1.17;0.70;;;8.00;99.90;8.00;98523.00;;;;4837641;28;88148;-66
2022/04/08 06:11:59;;;;;;;1.00;0.90;;;8.10;99.90;7.70;98536.00;;;;4836158;28;107815;-68
2022/04/08 06:14:26;;;;;;;1.67;1.10;;;7.90;99.90;7.30;98560.00;;;;4819616;28;88031;-68
2022/04/08 06:16:53;;;;;;;1.57;0.77;;;7.60;99.90;7.00;98552.00;;;;4838072;28;87914;-66
2022/04/08 06:19:18;;;;;;;4.37;1.23;;;7.20;99.90;6.70;98564.00;;;;4836424;28;111440;-67
2022/04/08 06:21:44;;;;;;;1.10;0.80;;;7.30;99.90;6.50;98563.00;;;;4836681;28;118717;-68
2022/04/08 06:24:10;;;;;;;0.77;0.77;;;6.80;99.90;6.30;98565.00;;;;4837446;28;89065;-68
2022/04/08 06:26:36;;;;;;;0.80;0.80;;;6.60;99.90;6.20;98575.00;;;;4837339;28;108485;-67
2022/04/08 06:29:04;;;;;;;1.67;1.17;;;6.80;99.90;6.10;98581.00;;;;4836918;28;88127;-68
2022/04/08 06:31:32;;;;;;;1.07;0.90;;;6.30;99.90;6.10;98588.00;;;;4837449;28;88906;-68
2022/04/08 06:34:00;;;;;;;1.00;0.90;;;6.30;99.90;6.10;98579.00;;;;4835954;28;111169;-70
2022/04/08 06:36:27;;;;;;;2.27;0.90;;;6.40;99.90;6.00;98585.00;;;;4837907;28;87316;-68
2022/04/08 06:38:53;;;;;;;2.17;1.37;;;6.20;99.90;6.00;98592.00;;;;4836701;28;111211;-68
2022/04/08 06:41:19;;;;;;;3.33;1.30;;;6.10;99.90;5.90;98597.00;;;;4819250;28;88112;-69
2022/04/08 06:43:44;;;;;;;1.87;1.60;;;6.10;99.90;5.90;98603.00;;;;4835684;28;102541;-67
2022/04/08 06:46:11;;;;;;;1.40;1.30;;;6.00;99.90;5.90;98613.00;;;;4836540;28;109035;-67
2022/04/08 06:48:37;;;;;;;2.83;1.50;;;6.50;99.90;5.90;98610.00;;;;4819233;28;90721;-68
2022/04/08 06:51:04;;;;;;;2.20;1.43;;;5.90;99.90;5.90;98610.00;;;;4837445;28;99209;-68
2022/04/08 06:53:34;;;;;;;3.57;1.47;;;6.00;99.90;5.90;98612.00;;;;4838678;28;87961;-67
2022/04/08 06:56:03;;;;;;;1.97;1.70;;;6.00;99.90;5.90;98625.00;;;;4837226;28;88100;-66
2022/04/08 06:58:30;;;;;;;1.50;1.40;;;6.00;99.90;5.90;98634.00;;;;4837174;28;88312;-68
2022/04/08 07:00:57;;;;;;;3.27;1.53;;;6.00;99.90;5.90;98641.00;;;;4837112;28;88153;-67
2022/04/08 07:03:23;;;;;;;2.07;1.37;;;6.60;99.90;5.90;98639.00;;;;4836880;28;87845;-65
2022/04/08 07:05:49;;;;;;;3.27;1.50;;;6.10;99.90;5.90;98654.00;;;;4837161;28;87591;-65
2022/04/08 07:08:14;;;;;;;2.10;1.30;;;6.00;99.90;5.80;98650.00;;;;4835246;28;118314;-66
2022/04/08 07:10:40;;;;;;;2.40;1.80;;;5.50;99.90;5.80;98659.00;;;;4835957;28;104700;-67
2022/04/08 07:13:09;;;;;;;2.87;1.80;;;6.50;99.90;5.70;98650.00;;;;4836573;28;87853;-67
2022/04/08 07:15:35;;;;;;;1.27;0.93;;;5.80;99.90;5.70;98652.00;;;;4836251;28;106891;-66
2022/04/08 07:18:04;;;;;;;1.50;1.40;;;5.80;99.90;5.70;98655.00;;;;4836377;28;117566;-66
2022/04/08 07:20:30;;;;;;;1.63;1.53;;;5.80;99.90;5.60;98647.00;;;;4836744;28;88793;-66
2022/04/08 07:23:01;;;;;;;1.63;1.30;;;5.80;99.90;5.60;98652.00;;;;4836746;28;95393;-66
2022/04/08 07:25:27;;;;;;;1.87;1.40;;;6.20;99.90;5.60;98654.00;;;;4837193;28;87040;-66
2022/04/08 07:27:58;;;;;;;1.93;1.73;;;6.20;99.90;5.60;98653.00;;;;4836285;28;88478;-67
2022/04/08 07:30:26;;;;;;;2.10;1.53;;;6.10;99.90;5.70;98661.00;;;;4836833;28;88289;-66
2022/04/08 07:32:53;;;;;;;4.20;1.67;;;5.70;99.90;5.70;98673.00;;;;4836483;28;88835;-66
2022/04/08 07:35:20;;;;;;;1.70;1.60;;;5.80;99.90;5.70;98662.00;;;;4837175;28;87973;-67
2022/04/08 07:37:45;;;;;;;3.47;1.63;;;5.80;99.90;5.70;98676.00;;;;4832432;28;105343;-67
2022/04/08 07:40:12;;;;;;;3.37;1.93;;;5.80;99.90;5.80;98688.00;;;;4818592;28;116886;-67
2022/04/08 07:42:39;;;;;;;2.87;1.67;;;5.80;99.90;5.80;98682.00;;;;4833648;28;91748;-66
2022/04/08 07:45:06;;;;;;;1.47;1.37;;;5.90;99.90;5.80;98680.00;;;;4836013;28;87998;-68
2022/04/08 07:47:33;;;;;;;1.33;1.23;;;5.90;99.90;5.80;98689.00;;;;4834651;28;89202;-66
2022/04/08 07:50:01;;;;;;;1.90;1.50;;;6.00;99.90;5.90;98693.00;;;;4836201;28;88394;-66
2022/04/08 07:52:27;;;;;;;2.30;1.43;;;5.90;99.90;5.90;98690.00;;;;4832662;28;87858;-66
2022/04/08 07:54:54;;;;;;;2.00;1.67;;;6.00;99.90;5.90;98686.00;;;;4838703;28;87708;-67
2022/04/08 07:57:20;;;;;;;3.17;2.50;;;6.00;99.90;5.90;98708.00;;;;4836645;28;89043;-66
2022/04/08 07:59:45;;;;;;;9.20;2.03;;;6.20;99.90;6.00;98712.00;;;;4839205;28;118000;-67
2022/04/08 08:02:11;;;;;;;2.50;1.83;;;6.10;99.90;6.00;98710.00;;;;4838096;28;99810;-66
2022/04/08 08:04:38;;;;;;;2.97;1.57;;;6.30;99.90;6.00;98722.00;;;;4836351;28;87816;-66
2022/04/08 08:07:04;;;;;;;2.67;2.20;;;6.70;99.90;6.00;98715.00;;;;4836397;28;89344;-67
2022/04/08 08:09:29;;;;;;;2.37;1.90;;;6.10;99.90;6.00;98699.00;;;;4835898;28;100405;-69
2022/04/08 08:11:55;;;;;;;2.27;1.90;;;6.10;99.90;6.00;98707.00;;;;4834554;28;87861;-67
2022/04/08 08:14:21;;;;;;;1.80;1.70;;;6.60;99.90;6.10;98704.00;;;;4835037;28;108645;-66
2022/04/08 08:16:46;;;;;;;2.20;1.93;;;5.90;99.90;6.20;98718.00;;;;4834614;28;117634;-68
2022/04/08 08:19:13;;;;;;;3.43;2.00;;;6.30;99.90;6.30;98721.00;;;;4816905;28;117357;-67
2022/04/08 08:21:38;;;;;;;2.77;1.90;;;6.60;99.90;6.40;98710.00;;;;4835280;28;88684;-66
2022/04/08 08:24:05;;;;;;;2.07;1.87;;;6.40;99.90;6.40;98726.00;;;;4836451;28;96361;-68
2022/04/08 08:26:31;;;;;;;2.53;1.93;;;6.10;99.90;6.30;98735.00;;;;4835433;28;89276;-66
2022/04/08 08:28:57;;;;;;;1.73;1.30;;;6.50;99.90;6.30;98734.00;;;;4835926;28;88070;-66
2022/04/08 08:31:22;;;;;;;1.43;1.33;;;6.50;99.90;6.40;98735.00;;;;4835768;28;88115;-66
2022/04/08 08:33:50;;;;;;;1.30;1.20;;;6.90;99.90;6.60;98729.00;;;;4835753;28;107172;-67
2022/04/08 08:36:16;;;;;;;0.67;0.67;;;6.60;99.90;6.80;98733.00;;;;4835841;28;88040;-68
2022/04/08 08:38:42;;;;;;;1.40;1.27;;;6.80;99.90;7.00;98733.00;;;;4834538;28;89135;-67
2022/04/08 08:41:09;;;;;;;1.03;0.93;;;7.10;99.90;7.20;98726.00;;;;4835641;28;87917;-67
2022/04/08 08:43:36;;;;;;;3.83;1.03;;;7.20;99.90;7.50;98723.00;;;;4835775;28;88038;-68
2022/04/08 08:46:04;;;;;;;1.23;0.77;;;7.40;99.90;7.60;98733.00;;;;4834971;28;89184;-68
2022/04/08 08:48:34;;;;;;;0.43;0.43;;;7.60;99.90;7.70;98740.00;;;;4835506;28;89621;-68
2022/04/08 08:51:05;;;;;;;0.77;0.70;;;7.70;99.90;7.90;98733.00;;;;4818034;28;87956;-67
2022/04/08 08:53:32;;;;;;;0.83;0.53;;;7.90;99.90;8.10;98738.00;;;;4839098;28;87744;-67
2022/04/08 08:55:59;;;;;;;0.77;0.77;;;8.10;99.90;8.30;98744.00;;;;4837116;28;88589;-67
2022/04/08 08:58:25;;;;;;;1.33;0.40;;;8.30;99.90;8.30;98722.00;;;;4841549;28;88094;-67
2022/04/08 09:00:51;;;;;;;0.50;0.50;;;8.40;99.90;8.30;98750.00;;;;4835631;28;87829;-68
2022/04/08 09:03:17;;;;;;;0.40;0.40;;;8.40;99.90;8.40;98766.00;;;;4834944;28;108349;-68
2022/04/08 09:05:47;;;;;;;1.80;0.70;;;8.40;99.90;8.50;98772.00;;;;4834063;28;117411;-67
2022/04/08 09:08:13;;;;;;;0.83;0.83;;;8.50;99.90;8.70;98758.00;;;;4835012;28;89107;-66
2022/04/08 09:10:48;;;;;;;0.40;0.40;;;8.60;99.90;8.90;98770.00;;;;4834669;28;88860;-66
2022/04/08 09:13:20;;;;;;;0.20;0.20;;;8.80;99.90;9.00;98771.00;;;;4828761;28;87836;-65
2022/04/08 09:15:56;;;;;;;0.30;0.30;;;9.00;99.90;9.00;98782.00;;;;4817229;28;88662;-63
2022/04/08 09:18:22;;;;;;;0.77;0.70;;;9.00;99.90;9.10;98793.00;;;;4834549;28;96380;-67
2022/04/08 09:20:50;;;;;;;1.60;0.63;;;9.10;99.90;9.10;98782.00;;;;4834714;28;87964;-67
2022/04/08 09:23:20;;;;;;;0.30;0.30;;;9.10;99.90;9.00;98799.00;;;;4836737;28;87989;-66
2022/04/08 09:25:48;;;;;;;1.17;0.43;;;9.10;99.90;8.90;98786.00;;;;4833697;28;88339;-67
2022/04/08 09:28:16;;;;;;;0.37;0.37;;;9.00;99.90;8.90;98787.00;;;;4834784;28;87119;-66
2022/04/08 09:30:49;;;;;;;0.30;0.30;;;9.00;99.90;8.90;98800.00;;;;4834536;28;87815;-66
2022/04/08 09:33:20;;;;;;;1.23;0.40;;;8.90;99.90;8.80;98797.00;;;;4838239;28;88111;-66
2022/04/08 09:35:48;;;;;;;0.40;0.40;;;8.90;99.90;8.80;98808.00;;;;4836395;28;89885;-65
2022/04/08 09:38:22;;;;;;;0.17;0.17;;;8.80;99.90;8.60;98823.00;;;;4834820;28;93017;-66
2022/04/08 09:40:49;;;;;;;0.40;0.40;;;8.90;99.90;8.50;98822.00;;;;4834097;28;88061;-66
2022/04/08 09:43:16;;;;;;;0.40;0.40;;;8.60;99.90;8.40;98812.00;;;;4835408;28;87876;-68
2022/04/08 09:45:44;;;;;;;0.43;0.30;;;8.50;99.90;8.20;98813.00;;;;4834926;28;88850;-66
2022/04/08 09:48:10;;;;;;;2.00;0.77;;;8.40;99.90;8.00;98814.00;;;;4834837;28;88465;-67
2022/04/08 09:50:39;;;;;;;0.30;0.30;;;8.20;99.90;7.90;98800.00;;;;4833763;28;110891;-66
2022/04/08 09:53:05;;;;;;;0.70;0.67;;;8.10;99.90;8.00;98807.00;;;;4835358;28;87099;-66
2022/04/08 09:55:34;;;;;;;2.33;0.50;;;8.00;99.90;8.20;98803.00;;;;4834525;28;88252;-67
2022/04/08 09:58:04;;;;;;;0.40;0.40;;;7.90;99.90;8.40;98798.00;;;;4833952;28;108667;-67
2022/04/08 10:00:32;;;;;;;0.43;0.43;;;8.30;99.90;8.60;98803.00;;;;4834331;28;101469;-66
2022/04/08 10:03:01;;;;;;;0.97;0.60;;;8.50;99.90;9.10;98794.00;;;;4835299;28;87819;-67
2022/04/08 10:05:27;;;;;;;0.90;0.43;;;8.90;99.90;9.60;98781.00;;;;4834791;28;87912;-65
2022/04/08 10:07:56;;;;;;;0.97;0.47;;;9.30;99.90;9.90;98803.00;;;;4835111;28;87758;-66
2022/04/08 10:10:44;;;;;;;0.20;0.20;;;9.60;99.50;10.20;98777.00;;;;4836667;28;87993;-66
2022/04/08 10:13:32;;;;;;;0.77;0.20;;;9.90;95.40;10.40;98783.00;;;;4836626;28;88243;-67
2022/04/08 10:16:17;;;;;;;0.50;0.30;;;10.20;95.80;10.70;98783.00;;;;4820212;28;89504;-63
2022/04/08 10:18:45;;;;;;;2.00;0.57;;;10.50;92.90;11.00;98799.00;;;;4820075;28;88612;-66
2022/04/08 10:21:11;;;;;;;0.30;0.30;;;10.70;92.70;11.20;98787.00;;;;4838196;28;87753;-64
2022/04/08 10:23:53;;;;;;;0.20;0.20;;;11.00;89.90;11.50;98794.00;;;;4835888;28;88070;-65
2022/04/08 10:26:27;;;;;;;0.50;0.40;;;11.30;80.90;11.60;98793.00;;;;4837265;28;88808;-66
2022/04/08 10:28:55;;;;;;;1.10;0.47;;;11.30;79.60;11.70;98794.00;;;;4837365;28;104579;-67
2022/04/08 10:31:23;;;;;;;0.37;0.37;;;11.60;77.20;12.00;98793.00;;;;4838183;28;88014;-66
2022/04/08 10:33:56;;;;;;;0.93;0.53;;;11.70;76.50;12.20;98796.00;;;;4837717;28;88058;-65
2022/04/08 10:36:44;;;;;;;1.80;0.30;;;12.00;74.10;12.40;98770.00;;;;4850612;28;88218;-64
2022/04/08 10:39:22;;;;;;;1.20;0.60;;;12.20;74.50;12.40;98784.00;;;;4819667;28;104051;-65
2022/04/08 10:41:53;;;;;;;0.40;0.40;;;12.30;70.20;12.30;98785.00;;;;4820170;28;87946;-65
2022/04/08 10:44:37;;;;;;;0.17;0.17;;;12.20;67.00;12.00;98772.00;;;;4836625;28;87034;-65
2022/04/08 10:47:14;;;;;;;0.33;0.23;;;12.10;65.20;12.10;98776.00;;;;4836143;28;98393;-65
2022/04/08 10:50:04;;;;;;;0.40;0.30;;;12.00;66.80;12.10;98783.00;;;;4836606;28;101528;-64
2022/04/08 10:52:39;;;;;;;0.20;0.20;;;12.10;66.00;12.10;98767.00;;;;4837851;28;88801;-64
2022/04/08 10:55:10;;;;;;;0.50;0.43;;;12.10;66.50;12.10;98755.00;;;;4830090;28;101557;-64
2022/04/08 10:57:40;;;;;;;0.30;0.30;;;12.10;66.00;12.00;98759.00;;;;4837830;28;88141;-66
2022/04/08 11:00:10;;;;;;;1.13;0.30;;;12.00;64.80;11.90;98759.00;;;;4820053;28;87781;-64
2022/04/08 11:02:38;;;;;;;1.80;0.43;;;11.90;66.00;11.60;98771.00;;;;4836910;28;88026;-65
2022/04/08 11:05:09;;;;;;;0.70;0.20;;;11.70;63.70;11.40;98759.00;;;;4838108;28;87758;-64